Time;durP1;ratioP1;P1;durP2;ratioP2;P2;SDS_P1;SDS_P2;PMS_P1;PMS_P2;Temp;Humidity;BMP_temperature;BMP_pressure;BME280_temperature;BME280_humidity;BME280_pressure;Samples;Min_cycle;Max_cycle;Signal;HPM_P1;HPM_P2
2021/07/05 00:00:54;;;;;;;;;;;;;;;22.33;54.06;99614.63;3507699;28;20019;-70
2021/07/05 00:02:35;;;;;;;;;;;;;;;22.31;54.21;99611.41;3504010;28;20012;-69
2021/07/05 00:04:15;;;;;;;;;;;;;;;22.30;54.18;99617.88;3483789;28;19924;-70
2021/07/05 00:05:58;;;;;;;;;;;;;;;22.27;54.22;99615.72;3482859;28;19924;-74
2021/07/05 00:07:38;;;;;;;;;;;;;;;22.26;54.12;99609.50;3482994;28;19947;-70
2021/07/05 00:09:19;;;;;;;;;;;;;;;22.25;54.27;99612.47;3483160;28;20004;-70
2021/07/05 00:11:00;;;;;;;;;;;;;;;22.24;54.38;99610.84;3483101;28;19990;-70
2021/07/05 00:12:45;;;;;;;;;;;;;;;22.23;54.18;99611.91;3488029;28;19924;-71
2021/07/05 00:14:26;;;;;;;;;;;;;;;22.20;54.24;99616.84;3496370;28;19924;-75
2021/07/05 00:16:06;;;;;;;;;;;;;;;22.19;54.32;99619.81;3496644;28;20434;-70
2021/07/05 00:17:48;;;;;;;;;;;;;;;22.17;54.34;99622.75;3496594;28;20288;-70
2021/07/05 00:19:28;;;;;;;;;;;;;;;22.18;54.17;99623.59;3496645;28;19924;-71
2021/07/05 00:21:09;;;;;;;;;;;;;;;22.16;54.27;99626.56;3496393;28;20302;-70
2021/07/05 00:22:50;;;;;;;;;;;;;;;22.15;54.04;99632.25;3500749;28;19947;-71
2021/07/05 00:24:30;;;;;;;;;;;;;;;22.13;54.06;99632.56;3509625;28;19923;-71
2021/07/05 00:26:11;;;;;;;;;;;;;;;22.13;54.16;99626.31;3510480;28;19924;-70
2021/07/05 00:27:51;;;;;;;;;;;;;;;22.11;54.18;99629.28;3497417;28;19924;-70
2021/07/05 00:29:32;;;;;;;;;;;;;;;22.09;54.08;99631.44;3496390;28;19920;-69
2021/07/05 00:31:12;;;;;;;;;;;;;;;22.09;54.27;99631.44;3496509;28;20353;-71
2021/07/05 00:32:53;;;;;;;;;;;;;;;22.07;54.21;99630.94;3499735;28;19955;-70
2021/07/05 00:34:33;;;;;;;;;;;;;;;22.07;54.34;99621.94;3509830;28;20418;-70
2021/07/05 00:36:14;;;;;;;;;;;;;;;;;;3510725;28;19927;-70
2021/07/05 00:37:55;;;;;;;;;;;;;;;22.04;54.09;99622.50;3510391;28;19916;-70
2021/07/05 00:39:35;;;;;;;;;;;;;;;22.01;54.28;99623.84;3509989;28;19931;-72
2021/07/05 00:41:16;;;;;;;;;;;;;;;22.02;54.38;99630.09;3510209;28;19928;-72
2021/07/05 00:42:57;;;;;;;;;;;;;;;22.00;54.32;99622.25;3508366;28;20386;-71
2021/07/05 00:44:37;;;;;;;;;;;;;;;21.99;54.30;99618.72;3509610;28;19931;-69
2021/07/05 00:46:18;;;;;;;;;;;;;;;21.99;54.45;99616.00;3510232;28;19924;-71
2021/07/05 00:47:58;;;;;;;;;;;;;;;21.99;54.40;99620.59;3512359;28;20272;-72
2021/07/05 00:49:39;;;;;;;;;;;;;;;21.97;54.38;99623.59;3512235;28;19924;-72
2021/07/05 00:51:20;;;;;;;;;;;;;;;21.97;54.46;99622.78;3512742;28;19923;-74
2021/07/05 00:53:01;;;;;;;;;;;;;;;21.95;54.34;99624.97;3512115;28;19931;-71
2021/07/05 00:54:42;;;;;;;;;;;;;;;21.92;54.50;99620.06;3485180;28;19924;-71
2021/07/05 00:56:23;;;;;;;;;;;;;;;21.90;54.16;99616.81;3484066;28;19932;-72
2021/07/05 00:58:03;;;;;;;;;;;;;;;21.88;54.31;99619.78;3481089;28;19924;-70
2021/07/05 00:59:44;;;;;;;;;;;;;;;21.86;54.30;99627.38;3485081;28;19924;-71
2021/07/05 01:01:24;;;;;;;;;;;;;;;21.86;54.32;99626.56;3485148;28;20314;-73
2021/07/05 01:03:05;;;;;;;;;;;;;;;21.82;54.51;99629.03;3485898;28;19925;-71
2021/07/05 01:04:46;;;;;;;;;;;;;;;21.80;54.40;99639.31;3512369;28;19924;-71
2021/07/05 01:06:26;;;;;;;;;;;;;;;21.80;54.62;99638.50;3512265;28;20429;-71
2021/07/05 01:08:07;;;;;;;;;;;;;;;21.78;54.58;99626.00;3511689;28;20455;-72
2021/07/05 01:09:47;;;;;;;;;;;;;;;21.78;54.71;99630.63;3512869;28;20511;-70
2021/07/05 01:11:28;;;;;;;;;;;;;;;21.77;54.74;99635.25;3512778;28;20027;-74
2021/07/05 01:13:09;;;;;;;;;;;;;;;21.77;54.53;99629.81;3511824;28;19997;-71
2021/07/05 01:14:49;;;;;;;;;;;;;;;21.77;54.74;99635.25;3498628;28;19924;-73
2021/07/05 01:16:30;;;;;;;;;;;;;;;21.76;54.57;99639.06;3497961;28;19924;-70
2021/07/05 01:18:10;;;;;;;;;;;;;;;21.77;54.76;99637.16;3498714;28;20315;-71
2021/07/05 01:19:51;;;;;;;;;;;;;;;21.84;55.17;99632.28;3498859;28;19931;-71
2021/07/05 01:21:31;;;;;;;;;;;;;;;21.94;55.19;99639.59;3498533;28;19928;-73
2021/07/05 01:23:11;;;;;;;;;;;;;;;;;;3499304;28;19925;-72
2021/07/05 01:24:52;;;;;;;;;;;;;;;22.14;54.96;99634.16;3512913;28;20023;-72
2021/07/05 01:26:33;;;;;;;;;;;;;;;22.23;55.24;99631.75;3512600;28;19924;-73
2021/07/05 01:28:13;;;;;;;;;;;;;;;22.30;54.95;99636.91;3512937;28;20042;-69
2021/07/05 01:29:54;;;;;;;;;;;;;;;22.37;54.90;99640.16;3512434;28;19924;-71
2021/07/05 01:31:35;;;;;;;;;;;;;;;22.43;54.87;99641.75;3512304;28;19924;-72
2021/07/05 01:33:15;;;;;;;;;;;;;;;22.47;54.82;99642.84;3512691;28;19924;-72
2021/07/05 01:34:56;;;;;;;;;;;;;;;22.51;54.86;99638.53;3510277;28;19924;-72
2021/07/05 01:36:36;;;;;;;;;;;;;;;22.56;54.80;99634.94;3512536;28;19947;-72
2021/07/05 01:38:19;;;;;;;;;;;;;;;22.57;54.66;99637.41;3511026;28;19916;-71
2021/07/05 01:40:00;;;;;;;;;;;;;;;22.62;54.86;99633.88;3511977;28;20022;-70
2021/07/05 01:41:41;;;;;;;;;;;;;;;22.64;54.75;99634.41;3511491;28;19916;-73
2021/07/05 01:43:22;;;;;;;;;;;;;;;22.67;54.60;99633.06;3512165;28;19928;-70
2021/07/05 01:45:03;;;;;;;;;;;;;;;22.70;54.56;99640.66;3501206;28;19916;-70
2021/07/05 01:46:44;;;;;;;;;;;;;;;22.73;54.42;99640.09;3498387;28;19932;-74
2021/07/05 01:48:25;;;;;;;;;;;;;;;22.74;54.44;99639.78;3498321;28;19917;-71
2021/07/05 01:50:06;;;;;;;;;;;;;;;22.78;54.40;99631.91;3498263;28;20310;-72
2021/07/05 01:51:47;;;;;;;;;;;;;;;22.79;54.23;99642.50;3498238;28;21166;-72
2021/07/05 01:53:28;;;;;;;;;;;;;;;22.81;54.21;99636.78;3498014;28;19924;-72
2021/07/05 01:55:08;;;;;;;;;;;;;;;22.83;54.28;99642.78;3508245;28;20284;-71
2021/07/05 01:56:49;;;;;;;;;;;;;;;22.85;54.20;99641.41;3492819;28;20387;-71
2021/07/05 01:58:29;;;;;;;;;;;;;;;22.87;54.03;99646.53;3497594;28;19967;-72
2021/07/05 02:00:12;;;;;;;;;;;;;;;22.88;54.08;99653.63;3498081;28;19924;-73
2021/07/05 02:01:52;;;;;;;;;;;;;;;22.92;54.12;99648.44;3498296;28;19927;-71
2021/07/05 02:03:33;;;;;;;;;;;;;;;22.93;54.02;99650.91;3497319;28;19925;-70
2021/07/05 02:05:15;;;;;;;;;;;;;;;22.94;53.80;99657.94;3508903;28;19919;-74
2021/07/05 02:06:55;;;;;;;;;;;;;;;22.96;53.84;99655.78;3512119;28;19924;-71
2021/07/05 02:08:37;;;;;;;;;;;;;;;22.98;53.75;99647.38;3512181;28;20018;-70
2021/07/05 02:10:35;;;;;;;;;;;;;;;22.99;53.80;99649.81;3512240;28;20459;-72
2021/07/05 02:12:16;;;;;;;;;;;;;;;23.01;53.60;99652.25;3512012;28;19951;-71
2021/07/05 02:13:56;;;;;;;;;;;;;;;23.03;53.46;99650.88;3511268;28;20298;-72
2021/07/05 02:15:37;;;;;;;;;;;;;;;23.06;53.36;99653.03;3498021;28;19931;-72
2021/07/05 02:17:18;;;;;;;;;;;;;;;23.08;53.27;99652.78;3496634;28;19920;-73
2021/07/05 02:18:58;;;;;;;;;;;;;;;23.08;53.37;99659.03;3497627;28;19931;-71
2021/07/05 02:20:39;;;;;;;;;;;;;;;23.10;53.20;99655.19;3498162;28;19966;-71
2021/07/05 02:22:20;;;;;;;;;;;;;;;23.11;53.14;99651.41;3497842;28;19928;-70
2021/07/05 02:24:01;;;;;;;;;;;;;;;23.15;53.17;99652.47;3497548;28;20019;-70
2021/07/05 02:25:41;;;;;;;;;;;;;;;23.19;53.00;99654.34;3510432;28;19971;-70
2021/07/05 02:27:22;;;;;;;;;;;;;;;23.23;52.70;99657.31;3511117;28;19984;-72
2021/07/05 02:29:02;;;;;;;;;;;;;;;23.28;52.80;99662.72;3511239;28;19920;-72
2021/07/05 02:30:44;;;;;;;;;;;;;;;23.29;52.64;99664.38;3511690;28;20367;-71
2021/07/05 02:32:25;;;;;;;;;;;;;;;23.30;52.46;99666.00;3511392;28;20501;-70
2021/07/05 02:34:05;;;;;;;;;;;;;;;23.30;52.59;99676.88;3507340;28;19928;-72
2021/07/05 02:35:47;;;;;;;;;;;;;;;23.30;52.37;99677.69;3497272;28;19928;-71
2021/07/05 02:37:29;;;;;;;;;;;;;;;23.29;52.28;99681.50;3496982;28;20406;-71
2021/07/05 02:39:09;;;;;;;;;;;;;;;23.30;52.36;99666.00;3497537;28;19924;-70
2021/07/05 02:40:51;;;;;;;;;;;;;;;23.30;52.53;99674.97;3506746;28;20382;-73
2021/07/05 02:42:32;;;;;;;;;;;;;;;23.30;52.40;99668.72;3511132;28;19931;-72
2021/07/05 02:44:12;;;;;;;;;;;;;;;23.28;52.35;99671.72;3488824;28;19924;-71
2021/07/05 02:45:54;;;;;;;;;;;;;;;23.27;52.33;99674.72;3495644;28;19928;-72
2021/07/05 02:47:34;;;;;;;;;;;;;;;23.26;52.33;99671.19;3497765;28;19925;-70
2021/07/05 02:49:15;;;;;;;;;;;;;;;23.26;51.96;99675.81;3488376;28;19931;-70
2021/07/05 02:50:57;;;;;;;;;;;;;;;23.22;52.11;99680.19;3483874;28;19925;-70
2021/07/05 02:52:38;;;;;;;;;;;;;;;23.20;52.08;99683.16;3493459;28;19928;-69
2021/07/05 02:54:19;;;;;;;;;;;;;;;23.18;51.95;99684.53;3496578;28;20371;-72
2021/07/05 02:55:59;;;;;;;;;;;;;;;23.18;52.07;99684.53;3484056;28;19931;-70
2021/07/05 02:57:43;;;;;;;;;;;;;;;23.19;51.92;99686.19;3484236;28;19928;-70
2021/07/05 02:59:24;;;;;;;;;;;;;;;23.22;52.01;99685.63;3490888;28;19971;-71
2021/07/05 03:01:05;;;;;;;;;;;;;;;23.23;52.11;99681.78;3496481;28;19958;-72
2021/07/05 03:02:47;;;;;;;;;;;;;;;23.25;52.17;99679.63;3497076;28;20019;-70
2021/07/05 03:04:28;;;;;;;;;;;;;;;23.27;52.03;99680.97;3497179;28;19925;-70
2021/07/05 03:06:09;;;;;;;;;;;;;;;23.29;51.81;99676.06;3497318;28;20311;-71
2021/07/05 03:07:50;;;;;;;;;;;;;;;23.31;51.76;99683.94;3492130;28;19924;-70
2021/07/05 03:09:30;;;;;;;;;;;;;;;23.33;51.76;99689.09;3482952;28;19924;-72
2021/07/05 03:11:12;;;;;;;;;;;;;;;23.34;51.68;99690.72;3482260;28;19931;-72
2021/07/05 03:12:53;;;;;;;;;;;;;;;23.36;51.77;99680.38;3483269;28;19974;-69
2021/07/05 03:14:33;;;;;;;;;;;;;;;23.39;51.59;99693.41;3500848;28;20290;-71
2021/07/05 03:16:16;;;;;;;;;;;;;;;23.42;51.73;99695.59;3510693;28;19924;-70
2021/07/05 03:17:57;;;;;;;;;;;;;;;23.44;51.60;99693.38;3510409;28;20318;-72
2021/07/05 03:19:37;;;;;;;;;;;;;;;23.43;51.49;99698.03;3511020;28;19924;-69
2021/07/05 03:21:18;;;;;;;;;;;;;;;23.44;51.53;99694.22;3495678;28;19939;-70
2021/07/05 03:22:59;;;;;;;;;;;;;;;23.45;51.49;99690.41;3507686;28;20326;-70
2021/07/05 03:24:40;;;;;;;;;;;;;;;23.44;51.41;99683.34;3500920;28;20353;-71
2021/07/05 03:26:21;;;;;;;;;;;;;;;23.46;51.49;99688.50;3496542;28;19977;-71
2021/07/05 03:28:03;;;;;;;;;;;;;;;23.47;51.49;99690.94;3496514;28;19982;-70
2021/07/05 03:29:43;;;;;;;;;;;;;;;23.48;51.36;99697.19;3495893;28;20304;-73
2021/07/05 03:31:24;;;;;;;;;;;;;;;23.50;51.30;99698.53;3496826;28;19977;-70
2021/07/05 03:33:04;;;;;;;;;;;;;;;23.52;51.28;99696.34;3495447;28;20395;-72
2021/07/05 03:34:45;;;;;;;;;;;;;;;23.52;51.12;99701.00;3505529;28;19967;-71
2021/07/05 03:36:25;;;;;;;;;;;;;;;23.52;51.02;99701.00;3510206;28;19924;-71
2021/07/05 03:38:06;;;;;;;;;;;;;;;23.51;50.99;99704.78;3510614;28;19930;-72
2021/07/05 03:39:47;;;;;;;;;;;;;;;23.50;50.56;99708.59;3510878;28;19972;-71
2021/07/05 03:41:27;;;;;;;;;;;;;;;23.51;50.80;99699.34;3510694;28;20019;-72
2021/07/05 03:43:08;;;;;;;;;;;;;;;23.51;50.82;99699.34;3510612;28;19930;-70
2021/07/05 03:44:48;;;;;;;;;;;;;;;23.51;51.09;99692.00;3499891;28;19924;-69
2021/07/05 03:46:29;;;;;;;;;;;;;;;23.54;51.44;99700.69;3496321;28;19924;-71
2021/07/05 03:48:10;;;;;;;;;;;;;;;23.55;51.88;99691.47;3495390;28;19924;-73
2021/07/05 03:49:50;;;;;;;;;;;;;;;23.58;52.34;99696.34;3496406;28;19932;-72
2021/07/05 03:51:31;;;;;;;;;;;;;;;23.61;52.72;99684.88;3495959;28;19924;-72
2021/07/05 03:53:13;;;;;;;;;;;;;;;23.67;52.97;99691.91;3495062;28;19924;-72
2021/07/05 03:54:53;;;;;;;;;;;;;;;23.71;52.71;99698.44;3497140;28;19931;-73
2021/07/05 03:56:34;;;;;;;;;;;;;;;23.75;52.60;99704.13;3496472;28;20062;-72
2021/07/05 03:58:16;;;;;;;;;;;;;;;23.78;52.60;99700.88;3496608;28;19931;-73
2021/07/05 03:59:57;;;;;;;;;;;;;;;23.82;52.37;99710.91;3496597;28;19925;-72
2021/07/05 04:01:37;;;;;;;;;;;;;;;23.83;52.18;99700.84;3496623;28;20418;-71
2021/07/05 04:03:18;;;;;;;;;;;;;;;23.83;51.95;99704.38;3496932;28;20391;-72
2021/07/05 04:04:59;;;;;;;;;;;;;;;23.85;52.16;99704.91;3503011;28;20306;-73
2021/07/05 04:06:39;;;;;;;;;;;;;;;23.90;52.05;99712.22;3509597;28;19974;-73
2021/07/05 04:08:22;;;;;;;;;;;;;;;23.92;52.44;99705.38;3510061;28;20002;-72
2021/07/05 04:10:05;;;;;;;;;;;;;;;23.99;52.36;99707.00;3510204;28;20009;-72
2021/07/05 04:11:46;;;;;;;;;;;;;;;24.02;52.35;99717.31;3510202;28;19931;-72
2021/07/05 04:13:28;;;;;;;;;;;;;;;24.03;52.03;99711.56;3510102;28;19975;-72
2021/07/05 04:15:08;;;;;;;;;;;;;;;24.06;52.45;99726.53;3501334;28;20409;-74
2021/07/05 04:16:49;;;;;;;;;;;;;;;24.07;52.07;99715.38;3492664;28;19931;-76
2021/07/05 04:18:29;;;;;;;;;;;;;;;24.08;52.29;99724.34;3495824;28;20011;-73
2021/07/05 04:20:13;;;;;;;;;;;;;;;24.09;52.51;99715.09;3496336;28;19924;-72
2021/07/05 04:21:53;;;;;;;;;;;;;;;24.13;52.64;99727.03;3496738;28;20422;-73
2021/07/05 04:23:34;;;;;;;;;;;;;;;24.17;52.74;99722.66;3499019;28;20034;-75
2021/07/05 04:25:15;;;;;;;;;;;;;;;24.22;53.03;99724.53;3506867;28;20406;-74
2021/07/05 04:26:55;;;;;;;;;;;;;;;24.25;52.34;99719.31;3512859;28;19951;-75
2021/07/05 04:28:36;;;;;;;;;;;;;;;24.24;52.02;99720.44;3512219;28;20463;-76
2021/07/05 04:30:16;;;;;;;;;;;;;;;24.23;52.09;99724.22;3512972;28;20015;-75
2021/07/05 04:31:57;;;;;;;;;;;;;;;24.21;51.75;99717.44;3511866;28;19985;-75
2021/07/05 04:33:37;;;;;;;;;;;;;;;24.18;50.54;99718.81;3513068;28;19923;-75
2021/07/05 04:35:19;;;;;;;;;;;;;;;24.14;51.17;99717.78;3501484;28;19924;-74
2021/07/05 04:36:59;;;;;;;;;;;;;;;24.14;50.99;99720.50;3498836;28;19924;-74
2021/07/05 04:38:40;;;;;;;;;;;;;;;24.16;50.95;99721.00;3498985;28;20395;-75
2021/07/05 04:40:22;;;;;;;;;;;;;;;24.18;50.35;99707.94;3498991;28;19931;-74
2021/07/05 04:42:03;;;;;;;;;;;;;;;24.19;50.25;99715.03;3498865;28;19932;-75
2021/07/05 04:43:43;;;;;;;;;;;;;;;24.20;50.08;99708.47;3498792;28;19928;-73
2021/07/05 04:45:27;;;;;;;;;;;;;;;24.28;50.46;99712.50;3498812;28;19924;-70
2021/07/05 04:47:08;;;;;;;;;;;;;;;24.35;50.30;99711.06;3498862;28;20009;-73
2021/07/05 04:48:48;;;;;;;;;;;;;;;24.43;50.08;99711.56;3498747;28;19970;-72
2021/07/05 04:50:29;;;;;;;;;;;;;;;24.50;50.27;99707.44;3498796;28;19928;-71
2021/07/05 04:52:10;;;;;;;;;;;;;;;24.56;49.71;99708.19;3498675;28;19931;-72
2021/07/05 04:53:50;;;;;;;;;;;;;;;24.60;49.54;99706.50;3498529;28;20357;-71
2021/07/05 04:55:31;;;;;;;;;;;;;;;24.62;49.07;99712.50;3498594;28;19924;-71
2021/07/05 04:57:12;;;;;;;;;;;;;;;24.64;49.26;99704.84;3498775;28;19931;-73
2021/07/05 04:58:53;;;;;;;;;;;;;;;24.67;48.61;99709.72;3498654;28;19924;-72
2021/07/05 05:00:34;;;;;;;;;;;;;;;24.71;49.14;99716.22;3497712;28;19924;-70
2021/07/05 05:02:15;;;;;;;;;;;;;;;24.77;49.03;99719.72;3494980;28;20070;-72
2021/07/05 05:03:55;;;;;;;;;;;;;;;24.81;48.76;99713.41;3498412;28;19924;-71
2021/07/05 05:05:39;;;;;;;;;;;;;;;24.85;48.38;99715.53;3498562;28;20422;-75
2021/07/05 05:07:19;;;;;;;;;;;;;;;24.89;48.18;99708.44;3498874;28;20053;-74
2021/07/05 05:09:00;;;;;;;;;;;;;;;24.92;47.67;99705.13;3497486;28;20371;-73
2021/07/05 05:10:41;;;;;;;;;;;;;;;24.97;47.94;99718.69;3497964;28;19930;-73
2021/07/05 05:12:21;;;;;;;;;;;;;;;25.00;48.13;99707.19;3509002;28;19923;-73
2021/07/05 05:14:02;;;;;;;;;;;;;;;25.06;47.90;99700.56;3511446;28;19928;-71
2021/07/05 05:15:42;;;;;;;;;;;;;;;25.10;47.70;99704.34;3512484;28;19924;-70
2021/07/05 05:17:24;;;;;;;;;;;;;;;25.17;47.80;99713.03;3512380;28;19924;-71
2021/07/05 05:19:05;;;;;;;;;;;;;;;25.23;47.63;99713.78;3511217;28;19919;-73
2021/07/05 05:20:45;;;;;;;;;;;;;;;25.28;47.65;99712.91;3512153;28;19924;-73
2021/07/05 05:22:26;;;;;;;;;;;;;;;25.31;46.90;99701.41;3511985;28;19920;-75
2021/07/05 05:24:06;;;;;;;;;;;;;;;25.34;46.81;99707.09;3512316;28;19939;-72
2021/07/05 05:25:47;;;;;;;;;;;;;;;25.38;46.64;99713.59;3512550;28;20459;-70
2021/07/05 05:27:27;;;;;;;;;;;;;;;25.41;45.98;99712.19;3510162;28;19927;-72
2021/07/05 05:29:08;;;;;;;;;;;;;;;25.41;45.95;99707.56;3511930;28;19946;-72
2021/07/05 05:30:49;;;;;;;;;;;;;;;25.45;46.09;99711.34;3507526;28;19920;-72
2021/07/05 05:32:29;;;;;;;;;;;;;;;25.50;45.80;99707.69;3503360;28;19932;-69
2021/07/05 05:34:10;;;;;;;;;;;;;;;25.56;45.48;99709.28;3511071;28;19932;-71
2021/07/05 05:35:50;;;;;;;;;;;;;;;25.60;45.31;99706.75;3512206;28;19924;-71
2021/07/05 05:37:31;;;;;;;;;;;;;;;25.62;45.19;99713.56;3497354;28;20045;-70
2021/07/05 05:39:12;;;;;;;;;;;;;;;25.67;44.81;99716.22;3497885;28;19928;-73
2021/07/05 05:40:52;;;;;;;;;;;;;;;25.71;44.68;99716.41;3498216;28;20308;-73
2021/07/05 05:42:33;;;;;;;;;;;;;;;25.77;45.08;99717.19;3497608;28;19931;-73
2021/07/05 05:44:14;;;;;;;;;;;;;;;25.81;44.75;99719.00;3497282;28;20200;-70
2021/07/05 05:46:00;;;;;;;;;;;;;;;25.84;44.27;99714.88;3497569;28;19924;-74
2021/07/05 05:47:41;;;;;;;;;;;;;;;25.85;43.69;99705.63;3498156;28;19931;-72
2021/07/05 05:49:21;;;;;;;;;;;;;;;25.89;43.95;99714.84;3496738;28;19924;-72
2021/07/05 05:51:02;;;;;;;;;;;;;;;25.96;44.35;99706.28;3493724;28;19924;-72
2021/07/05 05:52:43;;;;;;;;;;;;;;;26.01;44.02;99715.19;3497411;28;19970;-73
2021/07/05 05:54:23;;;;;;;;;;;;;;;26.05;43.48;99716.25;3496419;28;20009;-72
2021/07/05 05:56:04;;;;;;;;;;;;;;;26.11;43.54;99708.78;3497389;28;19928;-74
2021/07/05 05:57:45;;;;;;;;;;;;;;;26.16;43.43;99708.69;3497727;28;20010;-72
2021/07/05 05:59:25;;;;;;;;;;;;;;;26.21;43.36;99710.53;3496753;28;19925;-73
2021/07/05 06:01:06;;;;;;;;;;;;;;;26.26;43.50;99711.25;3493807;28;19930;-74
2021/07/05 06:02:47;;;;;;;;;;;;;;;26.32;43.25;99698.31;3497431;28;20461;-72
2021/07/05 06:04:28;;;;;;;;;;;;;;;26.36;43.14;99707.56;3497358;28;19973;-72
2021/07/05 06:06:08;;;;;;;;;;;;;;;26.40;43.34;99711.31;3497808;28;19924;-72
2021/07/05 06:07:50;;;;;;;;;;;;;;;26.41;42.63;99706.63;3497361;28;20011;-71
2021/07/05 06:09:30;;;;;;;;;;;;;;;26.41;42.11;99706.63;3497594;28;19978;-73
2021/07/05 06:11:11;;;;;;;;;;;;;;;26.44;42.28;99712.34;3497698;28;19928;-72
2021/07/05 06:12:52;;;;;;;;;;;;;;;26.46;42.18;99721.06;3498421;28;20022;-71
2021/07/05 06:14:32;;;;;;;;;;;;;;;26.49;41.96;99714.97;3498059;28;20359;-72
2021/07/05 06:16:13;;;;;;;;;;;;;;;26.49;41.28;99708.72;3498741;28;20241;-72
2021/07/05 06:17:54;;;;;;;;;;;;;;;26.46;41.58;99709.28;3498841;28;20015;-72
2021/07/05 06:19:34;;;;;;;;;;;;;;;26.47;41.38;99709.00;3500510;28;19915;-72
2021/07/05 06:21:15;;;;;;;;;;;;;;;26.50;41.05;99711.13;3499399;28;19925;-71
2021/07/05 06:22:56;;;;;;;;;;;;;;;26.56;41.11;99713.81;3497996;28;20379;-71
2021/07/05 06:24:36;;;;;;;;;;;;;;;26.61;41.17;99717.25;3497198;28;19967;-76
2021/07/05 06:26:17;;;;;;;;;;;;;;;26.66;40.89;99710.88;3497725;28;19938;-76
2021/07/05 06:28:00;;;;;;;;;;;;;;;26.72;40.56;99696.03;3495787;28;19959;-75
2021/07/05 06:29:41;;;;;;;;;;;;;;;26.77;40.79;99709.59;3497550;28;19931;-77
2021/07/05 06:31:21;;;;;;;;;;;;;;;26.81;40.34;99707.06;3497439;28;19916;-75
2021/07/05 06:33:02;;;;;;;;;;;;;;;26.84;40.23;99701.78;3497476;28;19928;-76
2021/07/05 06:34:43;;;;;;;;;;;;;;;26.91;40.04;99699.47;3496899;28;19936;-75
2021/07/05 06:36:23;;;;;;;;;;;;;;;27.03;40.06;99706.34;3493735;28;19978;-75
2021/07/05 06:38:06;;;;;;;;;;;;;;;27.13;39.61;99714.38;3494641;28;19978;-74
2021/07/05 06:39:46;;;;;;;;;;;;;;;27.22;39.25;99715.31;3496512;28;20399;-77
2021/07/05 06:41:29;;;;;;;;;;;;;;;27.34;38.99;99726.56;3496543;28;19930;-75
2021/07/05 06:43:10;;;;;;;;;;;;;;;27.46;38.96;99711.53;3496761;28;19945;-74
2021/07/05 06:44:50;;;;;;;;;;;;;;;27.56;38.36;99708.59;3496553;28;19924;-75
2021/07/05 06:46:31;;;;;;;;;;;;;;;27.67;38.75;99712.72;3502878;28;19908;-75
2021/07/05 06:48:11;;;;;;;;;;;;;;;27.76;38.08;99719.09;3504039;28;20017;-76
2021/07/05 06:49:52;;;;;;;;;;;;;;;27.86;37.45;99707.13;3504507;28;20035;-76
2021/07/05 06:51:34;;;;;;;;;;;;;;;27.99;37.76;99706.28;3504756;28;19950;-75
2021/07/05 06:53:14;;;;;;;;;;;;;;;28.13;37.72;99716.38;3496580;28;19929;-76
2021/07/05 06:54:55;;;;;;;;;;;;;;;28.25;37.37;99711.94;3494128;28;19924;-77
2021/07/05 06:56:37;;;;;;;;;;;;;;;28.38;37.07;99712.19;3496505;28;19936;-75
2021/07/05 06:58:17;;;;;;;;;;;;;;;28.47;34.94;99704.84;3496130;28;19925;-75
2021/07/05 07:00:00;;;;;;;;;;;;;;;28.55;36.36;99706.81;3495899;28;19924;-76
2021/07/05 07:01:41;;;;;;;;;;;;;;;28.61;35.99;99704.78;3496273;28;19996;-74
2021/07/05 07:03:22;;;;;;;;;;;;;;;28.68;36.23;99708.69;3495735;28;19951;-77
2021/07/05 07:05:07;;;;;;;;;;;;;;;28.76;36.07;99701.63;3496205;28;19924;-77
2021/07/05 07:06:49;;;;;;;;;;;;;;;28.83;36.39;99698.41;3495696;28;19932;-75
2021/07/05 07:08:34;;;;;;;;;;;;;;;28.92;36.33;99708.31;3495484;28;20354;-75
2021/07/05 07:10:15;;;;;;;;;;;;;;;29.02;35.89;99704.47;3491800;28;20307;-78
2021/07/05 07:11:56;;;;;;;;;;;;;;;29.13;35.60;99699.53;3496195;28;20023;-76
2021/07/05 07:13:38;;;;;;;;;;;;;;;29.21;35.49;99708.94;3489575;28;20341;-74
2021/07/05 07:15:25;;;;;;;;;;;;;;;29.31;36.07;99705.88;3492806;28;20406;-74
2021/07/05 07:17:13;;;;;;;;;;;;;;;29.42;35.82;99698.16;3494812;28;19924;-75
2021/07/05 07:20:54;;;;;;;;;;;;;;;29.53;35.62;99697.53;3496423;28;20035;-77
2021/07/05 07:22:35;;;;;;;;;;;;;;;29.55;35.90;99706.25;3495695;28;19966;-76
2021/07/05 07:24:17;;;;;;;;;;;;;;;29.61;35.87;99697.84;3496381;28;19931;-74
2021/07/05 07:25:58;;;;;;;;;;;;;;;29.66;35.88;99704.06;3500481;28;20376;-76
2021/07/05 07:27:39;;;;;;;;;;;;;;;29.73;35.73;99712.59;3485959;28;19925;-74
2021/07/05 07:29:19;;;;;;;;;;;;;;;29.82;35.72;99715.38;3495606;28;19931;-76
2021/07/05 07:31:01;;;;;;;;;;;;;;;29.90;35.30;99700.81;3503909;28;19924;-76
2021/07/05 07:32:42;;;;;;;;;;;;;;;30.00;35.41;99711.50;3510086;28;19924;-75
2021/07/05 07:34:22;;;;;;;;;;;;;;;30.08;35.23;99700.81;3508844;28;19927;-75
2021/07/05 07:36:04;;;;;;;;;;;;;;;30.15;35.80;99692.88;3498888;28;19925;-75
2021/07/05 07:37:47;;;;;;;;;;;;;;;30.22;35.31;99712.44;3496215;28;19916;-75
2021/07/05 07:39:41;;;;;;;;;;;;;;;30.30;35.13;99711.63;3497251;28;19924;-79
2021/07/05 07:41:23;;;;;;;;;;;;;;;30.42;35.48;99706.28;3496701;28;20027;-76
2021/07/05 07:43:04;;;;;;;;;;;;;;;30.53;35.23;99709.50;3496464;28;19924;-75
2021/07/05 07:44:45;;;;;;;;;;;;;;;30.63;35.34;99717.38;3496952;28;19920;-76
2021/07/05 07:46:26;;;;;;;;;;;;;;;30.73;35.12;99713.47;3496790;28;20409;-76
2021/07/05 07:48:06;;;;;;;;;;;;;;;30.83;35.17;99715.09;3496844;28;19923;-73
2021/07/05 07:49:48;;;;;;;;;;;;;;;30.93;35.21;99716.66;3497675;28;19924;-72
2021/07/05 07:51:29;;;;;;;;;;;;;;;31.03;35.27;99714.38;3497187;28;20395;-71
2021/07/05 07:53:10;;;;;;;;;;;;;;;31.13;35.57;99715.94;3498970;28;19967;-72
2021/07/05 07:54:51;;;;;;;;;;;;;;;31.21;35.76;99715.09;3509300;28;19967;-72
2021/07/05 07:56:32;;;;;;;;;;;;;;;31.29;35.68;99708.72;3502548;28;20010;-71
2021/07/05 07:58:12;;;;;;;;;;;;;;;31.38;35.53;99714.22;3486585;28;20463;-73
2021/07/05 07:59:53;;;;;;;;;;;;;;;31.47;35.68;99708.63;3495865;28;19928;-73
2021/07/05 08:01:34;;;;;;;;;;;;;;;31.57;35.69;99711.00;3481171;28;19974;-72
2021/07/05 08:03:15;;;;;;;;;;;;;;;31.68;35.79;99689.38;3484565;28;19924;-73
2021/07/05 08:04:56;;;;;;;;;;;;;;;31.77;35.54;99703.88;3501409;28;19924;-72
2021/07/05 08:06:38;;;;;;;;;;;;;;;31.86;36.10;99696.38;3496367;28;19985;-73
2021/07/05 08:08:19;;;;;;;;;;;;;;;31.84;34.93;99701.41;3496830;28;19931;-73
2021/07/05 08:10:00;;;;;;;;;;;;;;;31.94;34.92;99708.50;3496353;28;20347;-73
2021/07/05 08:11:41;;;;;;;;;;;;;;;32.00;34.63;99707.13;3496222;28;19977;-74
2021/07/05 08:13:23;;;;;;;;;;;;;;;32.06;35.36;99716.00;3506633;28;19938;-72
2021/07/05 08:15:05;;;;;;;;;;;;;;;32.06;34.42;99716.81;3509090;28;19926;-73
2021/07/05 08:16:48;;;;;;;;;;;;;;;32.12;34.40;99720.19;3511064;28;19935;-71
2021/07/05 08:18:31;;;;;;;;;;;;;;;32.19;34.33;99700.31;3509733;28;19970;-73
2021/07/05 08:20:12;;;;;;;;;;;;;;;32.29;34.56;99708.97;3511571;28;19908;-71
2021/07/05 08:21:53;;;;;;;;;;;;;;;32.38;33.79;99704.19;3516341;28;19952;-72
2021/07/05 08:23:36;;;;;;;;;;;;;;;32.46;34.05;99704.44;3515593;28;19979;-72
2021/07/05 08:25:17;;;;;;;;;;;;;;;32.48;33.81;99707.69;3513550;28;19925;-72
2021/07/05 08:26:58;;;;;;;;;;;;;;;32.48;33.31;99704.94;3500362;28;19932;-73
2021/07/05 08:28:39;;;;;;;;;;;;;;;32.52;33.39;99712.16;3498248;28;20019;-71
2021/07/05 08:30:22;;;;;;;;;;;;;;;32.61;33.06;99703.00;3497967;28;19931;-75
2021/07/05 08:32:04;;;;;;;;;;;;;;;32.68;33.16;99697.72;3497936;28;19924;-73
2021/07/05 08:33:47;;;;;;;;;;;;;;;32.76;33.43;99699.56;3498128;28;20020;-72
2021/07/05 08:35:28;;;;;;;;;;;;;;;32.84;32.67;99695.91;3503507;28;19933;-73
2021/07/05 08:37:10;;;;;;;;;;;;;;;32.93;32.65;99707.63;3488585;28;19979;-72
2021/07/05 08:38:51;;;;;;;;;;;;;;;32.99;32.52;99703.50;3494550;28;21670;-73
2021/07/05 08:40:31;;;;;;;;;;;;;;;33.07;32.54;99709.28;3503333;28;20403;-73
2021/07/05 08:42:12;;;;;;;;;;;;;;;33.14;32.69;99698.47;3505043;28;20420;-76
2021/07/05 08:43:53;;;;;;;;;;;;;;;33.25;32.62;99710.63;3491087;28;19932;-71
2021/07/05 08:45:33;;;;;;;;;;;;;;;33.34;32.70;99702.25;3481723;28;20399;-72
2021/07/05 08:47:14;;;;;;;;;;;;;;;33.42;31.94;99709.59;3491792;28;19925;-72
2021/07/05 08:48:54;;;;;;;;;;;;;;;33.47;31.97;99709.38;3481221;28;19932;-71